createdAt,value
2017-08-16T00:02:24.990Z,62.40
2017-08-16T00:04:59.510Z,62.50
2017-08-16T00:07:34.075Z,62.60
2017-08-16T00:10:08.695Z,63.00
2017-08-16T00:12:43.814Z,63.00
2017-08-16T00:15:22.236Z,63.20
2017-08-16T00:17:56.797Z,63.50
2017-08-16T00:20:31.338Z,63.60
2017-08-16T00:23:05.915Z,63.60
2017-08-16T00:25:40.630Z,63.70
2017-08-16T00:28:15.273Z,63.80
2017-08-16T00:30:50.706Z,63.90
2017-08-16T00:33:25.138Z,64.00
2017-08-16T00:35:59.700Z,64.10
2017-08-16T00:38:34.159Z,64.30
2017-08-16T00:41:08.672Z,64.40
2017-08-16T00:43:43.227Z,64.40
2017-08-16T00:46:17.723Z,64.40
2017-08-16T00:48:52.322Z,64.30
2017-08-16T00:51:26.951Z,64.40
2017-08-16T00:54:01.398Z,64.40
2017-08-16T00:56:35.982Z,64.60
2017-08-16T00:59:10.546Z,64.60
2017-08-16T01:01:45.515Z,64.60
2017-08-16T01:04:19.950Z,64.70
2017-08-16T01:06:54.587Z,64.80
2017-08-16T01:09:29.141Z,64.80
2017-08-16T01:12:04.461Z,65.00
2017-08-16T01:14:38.955Z,65.10
2017-08-16T01:17:13.561Z,65.00
2017-08-16T01:19:48.207Z,65.00
2017-08-16T01:22:22.762Z,64.90
2017-08-16T01:24:57.577Z,64.80
2017-08-16T01:27:32.254Z,65.00
2017-08-16T01:30:06.682Z,64.60
2017-08-16T01:32:41.250Z,64.90
2017-08-16T01:35:19.514Z,65.20
2017-08-16T01:37:54.075Z,65.20
2017-08-16T01:40:33.694Z,65.70
2017-08-16T01:43:08.333Z,65.60
2017-08-16T01:45:43.693Z,66.20
2017-08-16T01:48:18.250Z,66.10
2017-08-16T01:50:52.865Z,66.00
2017-08-16T01:53:27.478Z,66.60
2017-08-16T01:56:02.030Z,67.00
2017-08-16T01:58:36.617Z,67.10
2017-08-16T02:01:11.078Z,67.40
2017-08-16T02:03:45.689Z,67.60
2017-08-16T02:06:20.258Z,67.70
2017-08-16T02:08:54.809Z,67.90
2017-08-16T02:11:29.478Z,67.80
2017-08-16T02:14:04.165Z,67.60
2017-08-16T02:16:38.678Z,67.80
2017-08-16T02:19:14.035Z,67.90
2017-08-16T02:21:48.469Z,67.80
2017-08-16T02:24:23.093Z,67.80
2017-08-16T02:26:57.630Z,67.60
2017-08-16T02:29:32.218Z,67.80
2017-08-16T02:32:06.794Z,67.70
2017-08-16T02:34:41.207Z,67.80
2017-08-16T02:37:15.828Z,67.70
2017-08-16T02:39:50.294Z,67.80
2017-08-16T02:42:25.678Z,67.60
2017-08-16T02:45:00.182Z,67.60
2017-08-16T02:47:34.726Z,67.60
2017-08-16T02:50:09.591Z,67.70
2017-08-16T02:52:44.037Z,67.80
2017-08-16T02:55:18.614Z,67.80
2017-08-16T02:57:52.446Z,67.90
2017-08-16T03:00:31.851Z,68.00
2017-08-16T03:03:06.426Z,68.00
2017-08-16T03:05:40.751Z,68.00
2017-08-16T03:08:14.941Z,68.00
2017-08-16T03:10:49.353Z,68.20
2017-08-16T03:13:23.257Z,68.30
2017-08-16T03:15:57.340Z,68.30
2017-08-16T03:18:31.447Z,68.40
2017-08-16T03:21:05.710Z,68.40
2017-08-16T03:23:40.337Z,68.50
2017-08-16T03:26:15.670Z,68.90
2017-08-16T03:28:50.026Z,68.80
2017-08-16T03:31:23.785Z,69.10
2017-08-16T03:33:58.018Z,69.10
2017-08-16T03:36:32.558Z,68.90
2017-08-16T03:39:06.885Z,69.20
2017-08-16T03:41:41.030Z,69.20
2017-08-16T03:44:15.355Z,69.20
2017-08-16T03:46:49.589Z,69.20
2017-08-16T03:49:23.345Z,69.10
2017-08-16T03:51:57.506Z,69.30
2017-08-16T03:54:31.747Z,69.50
2017-08-16T03:57:05.838Z,69.60
2017-08-16T03:59:40.062Z,69.60
2017-08-16T04:02:14.256Z,69.70
2017-08-16T04:04:49.554Z,70.00
2017-08-16T04:07:24.947Z,69.90
2017-08-16T04:09:58.906Z,69.90
2017-08-16T04:12:32.726Z,69.90
2017-08-16T04:15:07.054Z,69.90
2017-08-16T04:17:40.922Z,69.80
2017-08-16T04:20:17.018Z,69.90
2017-08-16T04:25:34.666Z,69.80
2017-08-16T04:28:08.449Z,69.80
2017-08-16T04:30:42.550Z,69.60
2017-08-16T04:33:16.282Z,69.80
2017-08-16T04:35:51.486Z,69.50
2017-08-16T04:38:26.050Z,69.50
2017-08-16T04:41:00.297Z,69.40
2017-08-16T04:43:34.114Z,69.50
2017-08-16T04:46:08.193Z,69.30
2017-08-16T04:48:42.505Z,69.30
2017-08-16T04:51:16.430Z,69.20
2017-08-16T04:53:50.190Z,69.20
2017-08-16T04:56:24.242Z,69.30
2017-08-16T04:58:58.225Z,68.90
2017-08-16T05:01:32.510Z,68.80
2017-08-16T05:04:06.784Z,68.60
2017-08-16T05:06:40.545Z,68.10
2017-08-16T05:09:14.633Z,67.70
2017-08-16T05:11:48.996Z,67.40
2017-08-16T05:14:22.722Z,67.50
2017-08-16T05:16:56.485Z,67.10
2017-08-16T05:19:30.672Z,67.10
2017-08-16T05:22:04.601Z,67.00
2017-08-16T05:24:38.537Z,67.00
2017-08-16T05:27:12.977Z,67.00
2017-08-16T05:29:47.163Z,66.70
2017-08-16T05:32:21.081Z,66.50
2017-08-16T05:34:54.861Z,66.30
2017-08-16T05:37:28.952Z,66.40
2017-08-16T05:40:03.243Z,65.90
2017-08-16T05:42:37.378Z,65.70
2017-08-16T05:45:14.741Z,65.40
2017-08-16T05:47:49.313Z,65.20
2017-08-16T05:50:26.570Z,64.70
2017-08-16T05:53:01.224Z,64.30
2017-08-16T05:55:35.918Z,64.30
2017-08-16T05:58:10.382Z,63.70
2017-08-16T06:00:44.957Z,63.40
2017-08-16T06:03:20.299Z,63.30
2017-08-16T06:05:54.754Z,63.40
2017-08-16T06:08:29.157Z,63.10
2017-08-16T06:11:03.726Z,62.70
2017-08-16T06:13:38.174Z,62.40
2017-08-16T06:16:12.766Z,62.10
2017-08-16T06:18:48.102Z,61.20
2017-08-16T06:21:22.677Z,61.70
2017-08-16T06:23:57.137Z,61.50
2017-08-16T06:26:31.645Z,61.10
2017-08-16T06:29:06.221Z,60.90
2017-08-16T06:31:40.858Z,60.50
2017-08-16T06:34:15.471Z,60.00
2017-08-16T06:36:50.021Z,59.80
2017-08-16T06:39:23.838Z,59.40
2017-08-16T06:41:58.406Z,59.20
2017-08-16T06:44:32.820Z,59.40
2017-08-16T06:47:07.470Z,59.00
2017-08-16T06:49:42.911Z,58.70
2017-08-16T06:52:17.566Z,58.60
2017-08-16T06:54:52.182Z,58.30
2017-08-16T06:57:26.462Z,58.20
2017-08-16T07:00:01.043Z,57.90
2017-08-16T07:02:35.578Z,57.80
2017-08-16T07:05:10.122Z,57.50
2017-08-16T07:07:44.731Z,57.00
2017-08-16T07:10:21.026Z,56.80
2017-08-16T07:12:55.454Z,56.30
2017-08-16T07:15:33.697Z,55.60
2017-08-16T07:18:08.237Z,55.20
2017-08-16T07:20:43.016Z,55.10
2017-08-16T07:23:17.491Z,54.60
2017-08-16T07:25:52.001Z,54.10
2017-08-16T07:28:26.522Z,53.70
2017-08-16T07:31:01.170Z,53.60
2017-08-16T07:33:36.533Z,52.60
2017-08-16T07:36:11.157Z,51.80
2017-08-16T07:38:45.858Z,51.00
2017-08-16T07:41:20.667Z,51.40
2017-08-16T07:43:56.094Z,50.20
2017-08-16T07:46:30.800Z,50.20
2017-08-16T07:49:05.328Z,49.60
2017-08-16T07:51:39.826Z,49.40
2017-08-16T07:54:14.469Z,49.10
2017-08-16T07:56:49.833Z,48.20
2017-08-16T07:59:24.421Z,48.20
2017-08-16T08:01:59.129Z,48.00
2017-08-16T08:04:33.613Z,47.10
2017-08-16T08:07:08.279Z,46.70
2017-08-16T08:09:42.885Z,46.60
2017-08-16T08:12:17.491Z,46.60
2017-08-16T08:14:52.045Z,45.30
2017-08-16T08:17:26.657Z,44.90
2017-08-16T08:20:01.090Z,45.60
2017-08-16T08:22:35.709Z,45.40
2017-08-16T08:25:12.778Z,44.50
2017-08-16T08:27:47.301Z,43.80
2017-08-16T08:30:21.857Z,43.70
2017-08-16T08:32:57.031Z,43.60
2017-08-16T08:35:32.322Z,42.80
2017-08-16T08:38:06.777Z,42.80
2017-08-16T08:40:41.342Z,42.40
2017-08-16T08:43:15.793Z,42.30
2017-08-16T08:45:50.389Z,42.00
2017-08-16T08:48:24.926Z,42.00
2017-08-16T08:50:59.480Z,41.80
2017-08-16T08:53:34.093Z,41.40
2017-08-16T08:56:08.713Z,41.00
2017-08-16T08:58:43.369Z,41.20
2017-08-16T09:01:17.885Z,40.70
2017-08-16T09:03:52.370Z,40.60
2017-08-16T09:06:26.958Z,40.50
2017-08-16T09:09:01.514Z,40.00
2017-08-16T09:11:36.035Z,40.70
2017-08-16T09:14:10.568Z,40.70
2017-08-16T09:16:45.114Z,40.40
2017-08-16T09:19:21.250Z,39.60
2017-08-16T09:21:55.743Z,38.90
2017-08-16T09:24:31.009Z,38.90
2017-08-16T09:27:05.478Z,38.90
2017-08-16T09:29:40.101Z,39.00
2017-08-16T09:32:14.714Z,39.20
2017-08-16T09:34:49.172Z,39.10
2017-08-16T09:37:23.775Z,38.80
2017-08-16T09:39:58.210Z,38.80
2017-08-16T09:42:32.766Z,38.30
2017-08-16T09:45:07.424Z,37.80
2017-08-16T09:47:42.150Z,37.80
2017-08-16T09:50:16.675Z,37.70
2017-08-16T09:52:51.263Z,37.90
2017-08-16T09:55:25.822Z,37.30
2017-08-16T09:58:00.238Z,37.40
2017-08-16T10:00:34.776Z,37.80
2017-08-16T10:03:09.209Z,37.60
2017-08-16T10:05:43.839Z,37.20
2017-08-16T10:08:18.504Z,37.00
2017-08-16T10:10:52.989Z,36.80
2017-08-16T10:13:27.454Z,37.10
2017-08-16T10:16:01.930Z,37.00
2017-08-16T10:18:36.569Z,36.80
2017-08-16T10:21:11.154Z,37.60
2017-08-16T10:23:45.598Z,37.10
2017-08-16T10:26:20.253Z,37.20
2017-08-16T10:28:54.698Z,36.60
2017-08-16T10:31:29.275Z,36.60
2017-08-16T10:34:03.866Z,36.90
2017-08-16T10:36:38.475Z,36.20
2017-08-16T10:39:13.160Z,35.90
2017-08-16T10:41:47.631Z,35.70
2017-08-16T10:44:22.269Z,35.70
2017-08-16T10:46:56.878Z,35.90
2017-08-16T10:49:31.299Z,34.80
2017-08-16T10:52:05.721Z,35.00
2017-08-16T10:54:40.361Z,34.60
2017-08-16T10:57:15.709Z,34.70
2017-08-16T10:59:50.246Z,34.70
2017-08-16T11:02:24.864Z,34.10
2017-08-16T11:04:59.314Z,34.50
2017-08-16T11:07:33.881Z,34.50
2017-08-16T11:10:08.451Z,34.90
2017-08-16T11:12:42.869Z,34.80
2017-08-16T11:15:17.461Z,35.00
2017-08-16T11:17:51.990Z,34.80
2017-08-16T11:20:26.526Z,34.10
2017-08-16T11:23:01.030Z,34.30
2017-08-16T11:25:36.422Z,33.80
2017-08-16T11:28:10.934Z,33.80
2017-08-16T11:30:45.508Z,34.40
2017-08-16T11:33:20.157Z,34.80
2017-08-16T11:35:54.974Z,34.30
2017-08-16T11:38:29.495Z,33.20
2017-08-16T11:41:04.017Z,33.60
2017-08-16T11:43:38.625Z,33.50
2017-08-16T11:46:13.190Z,33.30
2017-08-16T11:48:47.705Z,32.50
2017-08-16T11:51:22.294Z,32.20
2017-08-16T11:53:56.947Z,31.90
2017-08-16T11:56:31.529Z,31.30
2017-08-16T11:59:06.030Z,31.70
2017-08-16T12:01:40.578Z,32.20
2017-08-16T12:04:15.046Z,32.20
2017-08-16T12:06:49.686Z,32.90
2017-08-16T12:09:24.122Z,33.50
2017-08-16T12:11:58.681Z,33.90
2017-08-16T12:14:33.131Z,34.30
2017-08-16T12:17:08.394Z,34.40
2017-08-16T12:19:42.956Z,33.90
2017-08-16T12:22:17.553Z,33.80
2017-08-16T12:24:52.091Z,34.00
2017-08-16T12:27:26.649Z,34.20
2017-08-16T12:30:01.167Z,34.30
2017-08-16T12:32:35.735Z,35.00
2017-08-16T12:35:10.321Z,34.90
2017-08-16T12:37:44.812Z,35.20
2017-08-16T12:40:19.371Z,34.80
2017-08-16T12:42:53.972Z,34.70
2017-08-16T12:45:28.503Z,34.00
2017-08-16T12:48:02.949Z,33.80
2017-08-16T12:50:37.537Z,34.50
2017-08-16T12:53:12.167Z,33.90
2017-08-16T12:55:46.758Z,34.80
2017-08-16T12:58:21.360Z,35.00
2017-08-16T13:00:55.904Z,35.10
2017-08-16T13:03:30.438Z,35.20
2017-08-16T13:06:05.399Z,35.10
2017-08-16T13:08:40.014Z,35.50
2017-08-16T13:11:14.592Z,35.70
2017-08-16T13:13:49.201Z,36.10
2017-08-16T13:16:23.710Z,36.10
2017-08-16T13:18:58.150Z,36.40
2017-08-16T13:21:32.710Z,36.70
2017-08-16T13:24:07.142Z,37.60
2017-08-16T13:26:41.702Z,37.90
2017-08-16T13:29:17.198Z,37.80
2017-08-16T13:31:51.646Z,37.80
2017-08-16T13:34:26.042Z,37.70
2017-08-16T13:37:00.565Z,38.30
2017-08-16T13:39:35.085Z,38.30
2017-08-16T13:42:09.699Z,38.20
2017-08-16T13:44:44.222Z,37.80
2017-08-16T13:47:18.793Z,38.00
2017-08-16T13:49:53.453Z,38.30
2017-08-16T13:52:28.006Z,37.70
2017-08-16T13:55:02.435Z,38.30
2017-08-16T13:57:37.074Z,39.00
2017-08-16T14:00:11.600Z,39.60
2017-08-16T14:02:46.048Z,38.90
2017-08-16T14:05:20.689Z,38.20
2017-08-16T14:07:55.197Z,38.30
2017-08-16T14:10:29.749Z,37.80
2017-08-16T14:13:04.179Z,38.00
2017-08-16T14:15:38.722Z,38.00
2017-08-16T14:18:13.125Z,38.40
2017-08-16T14:20:47.733Z,38.90
2017-08-16T14:23:22.294Z,39.50
2017-08-16T14:25:56.822Z,39.70
2017-08-16T14:28:31.258Z,40.70
2017-08-16T14:31:05.986Z,41.30
2017-08-16T14:33:40.410Z,41.20
2017-08-16T14:36:14.934Z,41.10
2017-08-16T14:38:49.478Z,41.60
2017-08-16T14:41:24.126Z,41.40
2017-08-16T14:43:58.725Z,41.60
2017-08-16T14:46:33.321Z,41.10
2017-08-16T14:49:07.745Z,41.90
2017-08-16T14:51:42.279Z,42.00
2017-08-16T14:54:16.842Z,42.30
2017-08-16T14:56:51.370Z,42.30
2017-08-16T14:59:25.792Z,42.40
2017-08-16T15:02:00.358Z,42.80
2017-08-16T15:04:34.990Z,42.80
2017-08-16T15:07:09.589Z,42.70
2017-08-16T15:09:44.238Z,42.60
2017-08-16T15:12:18.831Z,42.70
2017-08-16T15:14:53.320Z,42.80
2017-08-16T15:17:27.662Z,43.50
2017-08-16T15:20:02.141Z,43.40
2017-08-16T15:22:36.738Z,43.40
2017-08-16T15:25:11.350Z,43.90
2017-08-16T15:27:46.018Z,43.90
2017-08-16T15:30:20.546Z,44.00
2017-08-16T15:32:54.965Z,44.70
2017-08-16T15:35:29.581Z,44.60
2017-08-16T15:38:04.033Z,44.80
2017-08-16T15:40:38.615Z,44.90
2017-08-16T15:43:13.133Z,44.90
2017-08-16T15:45:47.752Z,45.30
2017-08-16T15:48:22.302Z,45.70
2017-08-16T15:50:56.854Z,45.90
2017-08-16T15:53:31.536Z,46.20
2017-08-16T15:56:06.159Z,46.50
2017-08-16T15:58:40.696Z,46.10
2017-08-16T16:01:15.248Z,46.10
2017-08-16T16:03:49.665Z,45.80
2017-08-16T16:06:24.282Z,45.60
2017-08-16T16:08:58.827Z,45.10
2017-08-16T16:11:33.450Z,45.10
2017-08-16T16:14:08.038Z,44.80
2017-08-16T16:16:42.581Z,44.90
2017-08-16T16:19:17.049Z,45.40
2017-08-16T16:21:51.615Z,45.30
2017-08-16T16:24:26.037Z,45.70
2017-08-16T16:27:00.662Z,46.10
2017-08-16T16:29:35.107Z,46.40
2017-08-16T16:32:10.502Z,46.60
2017-08-16T16:34:45.065Z,47.20
2017-08-16T16:37:19.757Z,47.30
2017-08-16T16:39:54.245Z,47.60
2017-08-16T16:42:28.900Z,48.00
2017-08-16T16:45:03.645Z,47.70
2017-08-16T16:47:40.834Z,47.90
2017-08-16T16:50:16.174Z,48.40
2017-08-16T16:52:50.631Z,48.40
2017-08-16T16:55:25.339Z,48.60
2017-08-16T16:57:59.990Z,49.00
2017-08-16T17:00:34.641Z,49.10
2017-08-16T17:03:09.079Z,49.40
2017-08-16T17:05:43.733Z,49.40
2017-08-16T17:10:59.057Z,49.90
2017-08-16T17:13:33.637Z,50.10
2017-08-16T17:16:08.151Z,50.40
2017-08-16T17:18:42.793Z,50.50
2017-08-16T17:21:17.237Z,50.40
2017-08-16T17:23:51.843Z,50.40
2017-08-16T17:26:26.178Z,50.40
2017-08-16T17:29:01.234Z,50.40
2017-08-16T17:31:35.842Z,50.80
2017-08-16T17:34:10.473Z,51.60
2017-08-16T17:36:45.068Z,52.20
2017-08-16T17:39:19.566Z,52.30
2017-08-16T17:41:54.102Z,51.50
2017-08-16T17:44:28.562Z,51.20
2017-08-16T17:47:03.165Z,51.90
2017-08-16T17:49:37.646Z,51.20
2017-08-16T17:52:13.027Z,52.10
2017-08-16T17:54:47.645Z,51.50
2017-08-16T17:57:23.208Z,51.80
2017-08-16T17:59:57.625Z,51.30
2017-08-16T18:02:32.245Z,51.70
2017-08-16T18:05:06.722Z,51.60
2017-08-16T18:07:41.346Z,52.20
2017-08-16T18:10:19.618Z,52.20
2017-08-16T18:12:54.057Z,52.20
2017-08-16T18:15:39.077Z,52.00
2017-08-16T18:18:13.617Z,53.10
2017-08-16T18:20:48.238Z,52.80
2017-08-16T18:23:23.617Z,52.90
2017-08-16T18:25:58.102Z,52.90
2017-08-16T18:28:32.594Z,53.20
2017-08-16T18:31:07.201Z,52.70
2017-08-16T18:33:41.709Z,52.60
2017-08-16T18:36:16.327Z,52.60
2017-08-16T18:38:50.874Z,52.60
2017-08-16T18:41:26.222Z,53.30
2017-08-16T18:44:00.746Z,53.30
2017-08-16T18:46:35.350Z,53.40
2017-08-16T18:49:10.662Z,53.60
2017-08-16T18:51:45.237Z,53.60
2017-08-16T18:54:19.734Z,53.50
2017-08-16T18:56:54.446Z,53.70
2017-08-16T18:59:29.019Z,53.80
2017-08-16T19:02:03.573Z,54.40
2017-08-16T19:04:38.094Z,54.40
2017-08-16T19:07:12.654Z,54.60
2017-08-16T19:09:47.102Z,54.60
2017-08-16T19:12:21.666Z,54.60
2017-08-16T19:14:56.133Z,54.90
2017-08-16T19:17:30.682Z,55.00
2017-08-16T19:20:05.163Z,55.30
2017-08-16T19:22:39.750Z,55.20
2017-08-16T19:25:25.039Z,55.20
2017-08-16T19:28:00.718Z,55.20
2017-08-16T19:30:35.274Z,55.20
2017-08-16T19:33:09.766Z,55.60
2017-08-16T19:35:44.374Z,55.60
2017-08-16T19:38:19.028Z,56.00
2017-08-16T19:40:53.614Z,56.10
2017-08-16T19:43:28.223Z,56.40
2017-08-16T19:46:04.876Z,56.50
2017-08-16T19:48:40.082Z,56.90
2017-08-16T19:51:15.520Z,56.70
2017-08-16T19:53:50.146Z,56.70
2017-08-16T19:56:25.479Z,56.70
2017-08-16T19:59:00.037Z,56.70
2017-08-16T20:01:34.666Z,56.80
2017-08-16T20:04:09.282Z,56.90
2017-08-16T20:06:43.825Z,56.90
2017-08-16T20:09:18.438Z,56.80
2017-08-16T20:11:53.098Z,57.20
2017-08-16T20:14:27.566Z,57.20
2017-08-16T20:17:02.197Z,57.60
2017-08-16T20:19:36.946Z,57.90
2017-08-16T20:22:11.446Z,57.90
2017-08-16T20:24:46.043Z,57.90
2017-08-16T20:27:20.637Z,58.00
2017-08-16T20:29:55.090Z,58.30
2017-08-16T20:32:29.689Z,58.40
2017-08-16T20:35:04.162Z,58.40
2017-08-16T20:37:38.758Z,58.40
2017-08-16T20:40:19.540Z,58.30
2017-08-16T20:42:54.089Z,58.40
2017-08-16T20:45:31.025Z,58.70
2017-08-16T20:48:05.422Z,58.90
2017-08-16T20:50:39.978Z,58.80
2017-08-16T20:53:14.490Z,58.80
2017-08-16T20:55:49.077Z,58.70
2017-08-16T20:58:23.698Z,58.90
2017-08-16T21:00:58.330Z,59.10
2017-08-16T21:03:32.926Z,59.40
2017-08-16T21:06:07.513Z,59.40
2017-08-16T21:08:41.953Z,59.40
2017-08-16T21:11:16.548Z,59.50
2017-08-16T21:13:51.249Z,59.70
2017-08-16T21:16:25.795Z,59.70
2017-08-16T21:19:00.231Z,60.00
2017-08-16T21:21:34.749Z,60.40
2017-08-16T21:24:09.233Z,60.30
2017-08-16T21:26:44.565Z,60.50
2017-08-16T21:29:19.072Z,60.40
2017-08-16T21:31:53.618Z,60.20
2017-08-16T21:34:28.197Z,60.10
2017-08-16T21:37:02.777Z,59.90
2017-08-16T21:39:37.414Z,60.10
2017-08-16T21:42:11.950Z,60.30
2017-08-16T21:44:46.549Z,59.90
2017-08-16T21:47:21.259Z,60.10
2017-08-16T21:49:55.791Z,60.10
2017-08-16T21:52:30.335Z,60.30
2017-08-16T21:55:04.870Z,60.30
2017-08-16T21:57:39.470Z,60.40
2017-08-16T22:00:17.782Z,60.60
2017-08-16T22:02:52.290Z,60.30
2017-08-16T22:05:26.825Z,60.30
2017-08-16T22:08:01.361Z,60.60
2017-08-16T22:10:35.797Z,60.50
2017-08-16T22:13:10.280Z,60.50
2017-08-16T22:15:44.846Z,60.60
2017-08-16T22:18:19.398Z,60.70
2017-08-16T22:20:54.002Z,60.90
2017-08-16T22:23:28.577Z,61.00
2017-08-16T22:26:03.034Z,61.10
2017-08-16T22:28:37.594Z,61.30
2017-08-16T22:31:12.301Z,61.30
2017-08-16T22:33:46.954Z,61.10
2017-08-16T22:36:21.542Z,60.80
2017-08-16T22:38:58.861Z,60.90
2017-08-16T22:41:33.294Z,60.90
2017-08-16T22:44:07.946Z,61.00
2017-08-16T22:46:42.477Z,61.00
2017-08-16T22:49:17.037Z,61.00
2017-08-16T22:51:51.602Z,61.20
2017-08-16T22:54:26.098Z,61.20
2017-08-16T22:57:00.709Z,61.10
2017-08-16T22:59:35.280Z,61.20
2017-08-16T23:02:09.842Z,61.60
2017-08-16T23:04:44.482Z,61.40
2017-08-16T23:07:19.070Z,61.70
2017-08-16T23:09:53.614Z,61.80
2017-08-16T23:12:28.215Z,61.90
2017-08-16T23:15:02.798Z,61.70
2017-08-16T23:17:37.425Z,62.00
2017-08-16T23:20:21.870Z,61.70
2017-08-16T23:22:56.323Z,61.90
2017-08-16T23:25:31.567Z,61.90
2017-08-16T23:28:06.121Z,62.00
2017-08-16T23:30:40.676Z,61.70
2017-08-16T23:33:15.218Z,62.00
2017-08-16T23:35:49.997Z,61.70
2017-08-16T23:38:25.154Z,61.80
2017-08-16T23:40:59.689Z,61.80
2017-08-16T23:43:34.455Z,61.90
2017-08-16T23:46:09.118Z,61.70
2017-08-16T23:48:43.606Z,61.70
2017-08-16T23:51:18.149Z,61.80
2017-08-16T23:53:52.599Z,61.60
2017-08-16T23:56:27.218Z,61.60
2017-08-16T23:59:01.695Z,61.80
